createdAt,value
2018-06-28T00:01:06.670Z,49.50
2018-06-28T00:03:34.851Z,49.85
2018-06-28T00:06:03.052Z,49.76
2018-06-28T00:08:31.220Z,49.96
2018-06-28T00:10:59.390Z,50.30
2018-06-28T00:13:27.566Z,50.18
2018-06-28T00:15:55.740Z,50.26
2018-06-28T00:18:24.051Z,50.17
2018-06-28T00:20:52.243Z,49.84
2018-06-28T00:23:20.407Z,50.33
2018-06-28T00:25:48.592Z,50.59
2018-06-28T00:28:16.771Z,50.51
2018-06-28T00:30:44.938Z,50.28
2018-06-28T00:33:13.127Z,50.49
2018-06-28T00:35:41.327Z,50.47
2018-06-28T00:38:09.483Z,50.59
2018-06-28T00:40:37.671Z,50.13
2018-06-28T00:43:05.851Z,50.30
2018-06-28T00:45:34.023Z,50.40
2018-06-28T00:48:02.222Z,50.32
2018-06-28T00:50:30.387Z,49.98
2018-06-28T00:52:58.588Z,50.35
2018-06-28T00:55:26.751Z,50.45
2018-06-28T00:57:54.922Z,50.05
2018-06-28T01:00:23.110Z,50.40
2018-06-28T01:02:51.285Z,50.40
2018-06-28T01:05:19.451Z,50.39
2018-06-28T01:07:47.643Z,50.24
2018-06-28T01:10:15.834Z,50.27
2018-06-28T01:12:44.015Z,50.49
2018-06-28T01:15:12.216Z,50.13
2018-06-28T01:17:40.411Z,50.52
2018-06-28T01:20:08.620Z,50.66
2018-06-28T01:22:36.795Z,50.47
2018-06-28T01:25:05.203Z,50.71
2018-06-28T01:27:33.399Z,50.38
2018-06-28T01:30:01.578Z,51.08
2018-06-28T01:32:29.774Z,50.62
2018-06-28T01:34:57.971Z,50.71
2018-06-28T01:37:26.134Z,50.78
2018-06-28T01:39:54.321Z,50.92
2018-06-28T01:43:35.339Z,51.29
2018-06-28T01:46:03.546Z,51.34
2018-06-28T01:48:31.723Z,51.14
2018-06-28T01:51:00.059Z,51.13
2018-06-28T01:53:28.598Z,51.28
2018-06-28T01:55:56.821Z,51.75
2018-06-28T01:58:24.991Z,51.53
2018-06-28T02:00:53.210Z,51.45
2018-06-28T02:03:21.415Z,51.66
2018-06-28T02:05:50.699Z,52.14
2018-06-28T02:08:19.302Z,52.36
2018-06-28T02:10:47.558Z,51.71
2018-06-28T02:13:15.795Z,51.90
2018-06-28T02:15:43.999Z,52.61
2018-06-28T02:18:12.164Z,52.58
2018-06-28T02:20:40.779Z,52.64
2018-06-28T02:23:09.147Z,52.38
2018-06-28T02:25:37.626Z,52.71
2018-06-28T02:28:06.095Z,52.31
2018-06-28T02:30:34.594Z,52.62
2018-06-28T02:33:02.787Z,52.62
2018-06-28T02:35:30.982Z,52.59
2018-06-28T02:37:59.178Z,52.71
2018-06-28T02:40:27.355Z,52.67
2018-06-28T02:42:55.526Z,52.49
2018-06-28T02:45:23.730Z,52.56
2018-06-28T02:47:51.938Z,52.50
2018-06-28T02:50:20.110Z,52.60
2018-06-28T02:52:48.292Z,53.37
2018-06-28T02:55:16.474Z,52.97
2018-06-28T02:57:44.663Z,53.00
2018-06-28T03:00:12.829Z,53.38
2018-06-28T03:02:41.010Z,53.17
2018-06-28T03:05:09.170Z,53.55
2018-06-28T03:07:37.333Z,53.15
2018-06-28T03:10:05.519Z,53.60
2018-06-28T03:12:33.678Z,53.55
2018-06-28T03:15:01.845Z,53.50
2018-06-28T03:17:30.023Z,54.11
2018-06-28T03:19:58.242Z,53.61
2018-06-28T03:22:26.423Z,53.56
2018-06-28T03:24:54.618Z,53.71
2018-06-28T03:27:22.795Z,53.37
2018-06-28T03:29:50.961Z,53.86
2018-06-28T03:32:19.135Z,53.09
2018-06-28T03:34:47.322Z,52.97
2018-06-28T03:37:15.495Z,53.07
2018-06-28T03:39:43.667Z,52.65
2018-06-28T03:42:11.835Z,53.23
2018-06-28T03:44:40.023Z,53.14
2018-06-28T03:47:08.202Z,52.88
2018-06-28T03:49:36.494Z,53.13
2018-06-28T03:52:04.707Z,52.81
2018-06-28T03:54:32.962Z,52.94
2018-06-28T03:57:01.157Z,52.67
2018-06-28T03:59:29.338Z,52.75
2018-06-28T04:01:57.510Z,52.72
2018-06-28T04:04:25.686Z,52.43
2018-06-28T04:06:53.859Z,52.65
2018-06-28T04:09:22.026Z,52.77
2018-06-28T04:11:50.206Z,52.42
2018-06-28T04:14:18.360Z,52.31
2018-06-28T04:16:46.560Z,52.41
2018-06-28T04:19:14.739Z,52.40
2018-06-28T04:21:42.910Z,52.72
2018-06-28T04:24:11.086Z,52.24
2018-06-28T04:26:39.258Z,52.67
2018-06-28T04:29:07.477Z,52.01
2018-06-28T04:31:35.724Z,51.69
2018-06-28T04:34:03.910Z,51.86
2018-06-28T04:36:32.074Z,51.54
2018-06-28T04:39:00.235Z,51.90
2018-06-28T04:41:28.420Z,51.71
2018-06-28T04:43:56.582Z,51.49
2018-06-28T04:46:24.762Z,51.75
2018-06-28T04:48:52.962Z,51.74
2018-06-28T04:51:21.130Z,51.48
2018-06-28T04:53:49.314Z,51.54
2018-06-28T04:56:17.535Z,51.57
2018-06-28T04:58:45.730Z,51.18
2018-06-28T05:01:13.916Z,51.71
2018-06-28T05:03:42.070Z,51.61
2018-06-28T05:06:10.239Z,51.27
2018-06-28T05:08:38.455Z,50.89
2018-06-28T05:11:06.655Z,51.19
2018-06-28T05:13:34.812Z,50.78
2018-06-28T05:16:02.973Z,50.72
2018-06-28T05:18:31.226Z,50.65
2018-06-28T05:20:59.415Z,50.31
2018-06-28T05:23:27.667Z,50.06
2018-06-28T05:25:55.762Z,50.18
2018-06-28T05:28:23.922Z,49.50
2018-06-28T05:30:52.082Z,49.18
2018-06-28T05:33:20.239Z,49.67
2018-06-28T05:35:48.415Z,49.47
2018-06-28T05:38:16.586Z,49.10
2018-06-28T05:40:44.748Z,48.94
2018-06-28T05:43:12.922Z,49.28
2018-06-28T05:45:41.179Z,49.59
2018-06-28T05:48:09.323Z,48.30
2018-06-28T05:50:37.657Z,48.85
2018-06-28T05:53:05.830Z,48.85
2018-06-28T05:55:34.425Z,47.71
2018-06-28T05:58:02.774Z,47.70
2018-06-28T06:00:30.961Z,48.49
2018-06-28T06:02:59.119Z,47.77
2018-06-28T06:05:27.282Z,47.56
2018-06-28T06:07:55.467Z,48.15
2018-06-28T06:10:23.628Z,47.06
2018-06-28T06:12:51.791Z,46.98
2018-06-28T06:15:20.186Z,47.39
2018-06-28T06:17:48.359Z,45.53
2018-06-28T06:20:16.596Z,46.34
2018-06-28T06:22:44.902Z,45.97
2018-06-28T06:25:13.066Z,45.97
2018-06-28T06:27:41.356Z,46.02
2018-06-28T06:30:09.958Z,46.31
2018-06-28T06:32:38.116Z,46.70
2018-06-28T06:35:06.282Z,46.02
2018-06-28T06:37:34.430Z,45.61
2018-06-28T06:40:02.635Z,45.57
2018-06-28T06:42:30.814Z,44.34
2018-06-28T06:44:59.846Z,45.28
2018-06-28T06:47:28.027Z,44.06
2018-06-28T06:49:56.190Z,44.76
2018-06-28T06:52:24.368Z,44.58
2018-06-28T06:54:52.510Z,44.36
2018-06-28T06:57:20.729Z,43.76
2018-06-28T06:59:48.918Z,43.44
2018-06-28T07:02:17.122Z,44.43
2018-06-28T07:04:45.306Z,44.49
2018-06-28T07:07:13.464Z,44.42
2018-06-28T07:09:41.640Z,45.60
2018-06-28T07:12:09.822Z,44.09
2018-06-28T07:14:37.991Z,43.86
2018-06-28T07:17:06.151Z,43.82
2018-06-28T07:19:34.319Z,43.53
2018-06-28T07:22:02.489Z,43.86
2018-06-28T07:24:30.639Z,44.52
2018-06-28T07:26:58.878Z,44.74
2018-06-28T07:29:26.994Z,43.19
2018-06-28T07:31:55.178Z,42.62
2018-06-28T07:34:23.342Z,42.91
2018-06-28T07:36:51.673Z,41.56
2018-06-28T07:39:19.839Z,42.25
2018-06-28T07:41:48.028Z,41.43
2018-06-28T07:44:16.190Z,40.33
2018-06-28T07:46:44.393Z,40.57
2018-06-28T07:49:12.536Z,40.97
2018-06-28T07:51:40.675Z,40.88
2018-06-28T07:54:08.843Z,41.79
2018-06-28T07:56:37.214Z,40.96
2018-06-28T07:59:05.234Z,41.77
2018-06-28T08:01:33.503Z,40.79
2018-06-28T08:04:01.661Z,41.29
2018-06-28T08:06:29.818Z,41.27
2018-06-28T08:08:57.994Z,40.86
2018-06-28T08:11:26.166Z,39.19
2018-06-28T08:13:54.338Z,39.49
2018-06-28T08:16:22.538Z,39.17
2018-06-28T08:18:50.720Z,38.57
2018-06-28T08:21:18.882Z,40.02
2018-06-28T08:23:48.202Z,38.77
2018-06-28T08:26:16.374Z,38.65
2018-06-28T08:28:44.539Z,37.84
2018-06-28T08:31:12.716Z,39.51
2018-06-28T08:33:41.055Z,38.01
2018-06-28T08:36:09.270Z,38.84
2018-06-28T08:38:37.420Z,37.60
2018-06-28T08:41:05.627Z,38.50
2018-06-28T08:43:33.776Z,37.32
2018-06-28T08:46:01.971Z,37.54
2018-06-28T08:48:30.123Z,37.90
2018-06-28T08:50:58.287Z,37.37
2018-06-28T08:53:26.446Z,37.37
2018-06-28T08:55:54.771Z,37.66
2018-06-28T08:58:23.145Z,37.23
2018-06-28T09:00:51.259Z,37.05
2018-06-28T09:03:19.407Z,37.17
2018-06-28T09:05:47.624Z,36.79
2018-06-28T09:08:15.730Z,38.64
2018-06-28T09:10:43.914Z,37.83
2018-06-28T09:13:12.125Z,37.39
2018-06-28T09:15:40.263Z,36.37
2018-06-28T09:18:08.462Z,36.99
2018-06-28T09:20:36.636Z,37.25
2018-06-28T09:23:05.130Z,37.55
2018-06-28T09:25:33.223Z,36.92
2018-06-28T09:28:01.426Z,38.18
2018-06-28T09:30:29.595Z,36.60
2018-06-28T09:32:57.762Z,36.48
2018-06-28T09:35:25.942Z,37.17
2018-06-28T09:37:54.122Z,36.10
2018-06-28T09:40:22.330Z,36.94
2018-06-28T09:42:50.513Z,36.29
2018-06-28T09:45:18.702Z,36.39
2018-06-28T09:47:46.867Z,35.60
2018-06-28T09:50:15.037Z,35.13
2018-06-28T09:52:43.215Z,34.54
2018-06-28T09:55:11.394Z,34.76
2018-06-28T09:57:39.558Z,34.21
2018-06-28T10:00:07.848Z,34.53
2018-06-28T10:02:36.403Z,34.03
2018-06-28T10:05:04.718Z,34.39
2018-06-28T10:07:32.867Z,34.66
2018-06-28T10:10:01.026Z,34.61
2018-06-28T10:12:29.185Z,34.66
2018-06-28T10:14:57.358Z,34.72
2018-06-28T10:17:25.535Z,34.24
2018-06-28T10:19:53.694Z,35.64
2018-06-28T10:22:21.864Z,34.26
2018-06-28T10:24:50.010Z,33.05
2018-06-28T10:27:18.171Z,33.40
2018-06-28T10:29:46.326Z,33.47
2018-06-28T10:32:14.477Z,34.11
2018-06-28T10:34:42.642Z,32.34
2018-06-28T10:37:10.802Z,32.82
2018-06-28T10:39:39.006Z,32.01
2018-06-28T10:42:07.641Z,32.41
2018-06-28T10:44:35.839Z,30.75
2018-06-28T10:47:03.979Z,31.38
2018-06-28T10:49:32.131Z,29.05
2018-06-28T10:52:00.292Z,30.64
2018-06-28T10:54:28.446Z,31.64
2018-06-28T10:56:56.606Z,31.25
2018-06-28T10:59:24.772Z,31.21
2018-06-28T11:01:52.999Z,31.35
2018-06-28T11:04:21.166Z,31.96
2018-06-28T11:06:49.331Z,31.93
2018-06-28T11:09:17.474Z,30.65
2018-06-28T11:11:45.630Z,31.49
2018-06-28T11:14:13.791Z,30.18
2018-06-28T11:16:41.955Z,30.31
2018-06-28T11:19:10.103Z,30.50
2018-06-28T11:21:38.263Z,29.44
2018-06-28T11:24:06.422Z,30.87
2018-06-28T11:26:34.637Z,29.25
2018-06-28T11:29:03.010Z,30.03
2018-06-28T11:31:31.195Z,30.16
2018-06-28T11:33:59.340Z,29.48
2018-06-28T11:36:27.498Z,31.10
2018-06-28T11:38:55.650Z,29.39
2018-06-28T11:41:23.818Z,29.79
2018-06-28T11:43:52.059Z,29.53
2018-06-28T11:46:20.259Z,28.31
2018-06-28T11:48:48.502Z,28.97
2018-06-28T11:51:16.678Z,29.34
2018-06-28T11:53:44.838Z,28.94
2018-06-28T11:56:12.982Z,30.87
2018-06-28T11:58:41.174Z,29.52
2018-06-28T12:01:09.344Z,28.77
2018-06-28T12:03:37.514Z,29.05
2018-06-28T12:06:05.710Z,30.95
2018-06-28T12:08:33.878Z,30.47
2018-06-28T12:11:02.042Z,28.35
2018-06-28T12:13:30.194Z,28.10
2018-06-28T12:15:58.366Z,29.24
2018-06-28T12:18:26.530Z,29.37
2018-06-28T12:20:54.690Z,30.82
2018-06-28T12:23:22.834Z,30.92
2018-06-28T12:25:51.022Z,30.38
2018-06-28T12:28:19.170Z,30.73
2018-06-28T12:30:47.354Z,30.43
2018-06-28T12:33:15.566Z,30.39
2018-06-28T12:35:43.710Z,30.90
2018-06-28T12:38:11.891Z,31.19
2018-06-28T12:40:40.109Z,31.49
2018-06-28T12:43:08.302Z,31.52
2018-06-28T12:45:36.478Z,30.08
2018-06-28T12:48:06.570Z,31.38
2018-06-28T12:50:34.842Z,30.63
2018-06-28T12:53:04.107Z,30.35
2018-06-28T12:56:37.578Z,31.37
2018-06-28T12:59:08.142Z,30.70
2018-06-28T13:01:36.439Z,30.46
2018-06-28T13:04:04.666Z,30.26
2018-06-28T13:06:32.863Z,32.18
2018-06-28T13:09:01.575Z,32.06
2018-06-28T13:11:29.937Z,32.19
2018-06-28T13:13:58.095Z,31.75
2018-06-28T13:16:27.643Z,31.79
2018-06-28T13:18:55.807Z,32.28
2018-06-28T13:21:23.989Z,32.50
2018-06-28T13:23:52.158Z,32.76
2018-06-28T13:26:20.331Z,31.77
2018-06-28T13:28:48.531Z,31.95
2018-06-28T13:31:16.759Z,32.22
2018-06-28T13:33:44.970Z,32.06
2018-06-28T13:36:13.117Z,31.87
2018-06-28T13:38:41.458Z,31.77
2018-06-28T13:41:09.819Z,30.85
2018-06-28T13:43:37.828Z,32.51
2018-06-28T13:46:06.420Z,31.42
2018-06-28T13:48:34.599Z,32.64
2018-06-28T13:51:03.361Z,31.35
2018-06-28T13:53:31.522Z,31.98
2018-06-28T13:55:59.692Z,33.10
2018-06-28T13:58:27.861Z,32.63
2018-06-28T14:00:56.030Z,32.68
2018-06-28T14:03:24.317Z,33.60
2018-06-28T14:05:52.387Z,33.28
2018-06-28T14:08:20.554Z,33.05
2018-06-28T14:10:48.762Z,32.62
2018-06-28T14:13:16.998Z,32.31
2018-06-28T14:15:45.402Z,31.00
2018-06-28T14:18:13.582Z,32.82
2018-06-28T14:20:41.896Z,31.80
2018-06-28T14:23:10.064Z,32.71
2018-06-28T14:25:38.514Z,31.56
2018-06-28T14:28:06.736Z,32.35
2018-06-28T14:30:34.862Z,32.18
2018-06-28T14:33:03.038Z,32.18
2018-06-28T14:35:31.843Z,31.35
2018-06-28T14:38:00.130Z,32.39
2018-06-28T14:40:28.323Z,31.67
2018-06-28T14:42:56.510Z,32.39
2018-06-28T14:45:24.742Z,32.39
2018-06-28T14:47:53.070Z,33.03
2018-06-28T14:50:21.321Z,32.51
2018-06-28T14:52:49.504Z,32.47
2018-06-28T14:55:17.699Z,33.62
2018-06-28T14:57:45.886Z,33.42
2018-06-28T15:00:14.093Z,34.07
2018-06-28T15:02:42.986Z,33.78
2018-06-28T15:05:11.266Z,33.95
2018-06-28T15:07:39.485Z,33.59
2018-06-28T15:10:08.108Z,32.98
2018-06-28T15:12:36.378Z,32.73
2018-06-28T15:15:05.046Z,32.33
2018-06-28T15:17:33.630Z,32.08
2018-06-28T15:20:01.823Z,31.93
2018-06-28T15:22:30.314Z,32.79
2018-06-28T15:24:58.541Z,32.08
2018-06-28T15:27:26.858Z,32.60
2018-06-28T15:29:55.393Z,32.27
2018-06-28T15:32:23.897Z,32.39
2018-06-28T15:34:52.130Z,32.68
2018-06-28T15:37:20.488Z,33.59
2018-06-28T15:39:48.699Z,32.88
2018-06-28T15:42:16.908Z,32.00
2018-06-28T15:44:45.087Z,31.69
2018-06-28T15:47:13.896Z,31.80
2018-06-28T15:49:42.234Z,32.83
2018-06-28T15:52:10.487Z,32.62
2018-06-28T15:54:38.810Z,32.10
2018-06-28T15:57:07.123Z,32.66
2018-06-28T15:59:35.541Z,31.94
2018-06-28T16:02:03.828Z,31.91
2018-06-28T16:04:32.126Z,31.97
2018-06-28T16:07:00.699Z,31.57
2018-06-28T16:09:28.888Z,32.14
2018-06-28T16:11:57.050Z,32.31
2018-06-28T16:14:25.326Z,32.35
2018-06-28T16:16:53.490Z,32.44
2018-06-28T16:19:21.646Z,32.34
2018-06-28T16:21:49.830Z,33.15
2018-06-28T16:24:18.017Z,32.76
2018-06-28T16:26:46.198Z,33.10
2018-06-28T16:29:14.355Z,33.16
2018-06-28T16:31:42.563Z,32.82
2018-06-28T16:34:10.742Z,34.19
2018-06-28T16:36:39.159Z,34.14
2018-06-28T16:39:09.270Z,33.38
2018-06-28T16:41:37.610Z,34.11
2018-06-28T16:44:06.126Z,34.29
2018-06-28T16:46:34.738Z,34.00
2018-06-28T16:49:02.867Z,33.52
2018-06-28T16:51:31.047Z,33.72
2018-06-28T16:53:59.210Z,33.23
2018-06-28T16:56:27.442Z,32.62
2018-06-28T16:58:55.747Z,33.65
2018-06-28T17:01:23.986Z,33.92
2018-06-28T17:03:52.159Z,33.17
2018-06-28T17:06:20.346Z,33.66
2018-06-28T17:08:48.526Z,33.16
2018-06-28T17:11:16.790Z,32.98
2018-06-28T17:13:44.969Z,33.85
2018-06-28T17:16:13.155Z,32.82
2018-06-28T17:18:41.520Z,33.15
2018-06-28T17:21:09.806Z,32.76
2018-06-28T17:23:38.051Z,33.54
2018-06-28T17:26:06.563Z,34.09
2018-06-28T17:28:34.998Z,33.88
2018-06-28T17:31:03.145Z,33.17
2018-06-28T17:33:31.343Z,33.27
2018-06-28T17:35:59.498Z,33.00
2018-06-28T17:38:27.686Z,33.28
2018-06-28T17:40:55.847Z,34.19
2018-06-28T17:43:24.018Z,33.06
2018-06-28T17:45:52.245Z,33.06
2018-06-28T17:48:20.426Z,33.67
2018-06-28T17:50:48.614Z,33.75
2018-06-28T17:53:16.779Z,33.89
2018-06-28T17:55:44.966Z,34.09
2018-06-28T17:58:13.347Z,33.99
2018-06-28T18:00:41.562Z,34.24
2018-06-28T18:03:09.730Z,33.70
2018-06-28T18:05:38.782Z,34.69
2018-06-28T18:08:07.317Z,33.97
2018-06-28T18:10:35.883Z,34.38
2018-06-28T18:13:04.167Z,34.39
2018-06-28T18:15:32.528Z,34.60
2018-06-28T18:18:01.533Z,34.07
2018-06-28T18:20:29.792Z,33.99
2018-06-28T18:22:58.038Z,34.56
2018-06-28T18:25:26.542Z,34.74
2018-06-28T18:27:54.973Z,34.84
2018-06-28T18:30:23.448Z,35.52
2018-06-28T18:32:53.218Z,35.39
2018-06-28T18:35:21.491Z,35.59
2018-06-28T18:37:50.016Z,35.54
2018-06-28T18:40:18.506Z,35.30
2018-06-28T18:42:46.727Z,35.67
2018-06-28T18:45:15.059Z,35.69
2018-06-28T18:47:43.274Z,36.60
2018-06-28T18:50:11.666Z,35.79
2018-06-28T18:52:39.918Z,36.36
2018-06-28T18:55:08.247Z,36.60
2018-06-28T18:57:36.842Z,35.98
2018-06-28T19:00:05.822Z,36.84
2018-06-28T19:02:34.231Z,36.25
2018-06-28T19:05:02.491Z,36.48
2018-06-28T19:07:30.751Z,36.50
2018-06-28T19:10:04.485Z,37.02
2018-06-28T19:12:32.706Z,36.93
2018-06-28T19:15:06.098Z,37.10
2018-06-28T19:17:34.770Z,37.56
2018-06-28T19:20:02.994Z,37.49
2018-06-28T19:22:36.546Z,38.18
2018-06-28T19:25:05.830Z,38.01
2018-06-28T19:27:34.361Z,38.38
2018-06-28T19:30:08.183Z,38.07
2018-06-28T19:32:36.535Z,38.51
2018-06-28T19:35:04.730Z,38.97
2018-06-28T19:37:38.078Z,38.30
2018-06-28T19:40:13.011Z,39.08
2018-06-28T19:42:46.477Z,39.07
2018-06-28T19:45:14.837Z,39.23
2018-06-28T19:47:43.006Z,39.27
2018-06-28T19:50:16.334Z,39.29
2018-06-28T19:52:49.838Z,39.91
2018-06-28T19:55:18.010Z,40.09
2018-06-28T19:57:46.168Z,40.70
2018-06-28T20:00:19.598Z,39.92
2018-06-28T20:02:53.019Z,40.68
2018-06-28T20:05:21.218Z,40.88
2018-06-28T20:07:49.450Z,40.36
2018-06-28T20:10:17.638Z,40.92
2018-06-28T20:12:51.072Z,40.84
2018-06-28T20:15:28.078Z,41.03
2018-06-28T20:18:02.054Z,41.33
2018-06-28T20:20:32.143Z,40.58
2018-06-28T20:23:00.415Z,41.44
2018-06-28T20:25:28.614Z,40.88
2018-06-28T20:28:02.103Z,41.71
2018-06-28T20:30:35.558Z,41.17
2018-06-28T20:33:09.082Z,41.54
2018-06-28T20:35:37.312Z,41.37
2018-06-28T20:38:05.414Z,41.47
2018-06-28T20:40:33.580Z,41.57
2018-06-28T20:43:01.762Z,41.89
2018-06-28T20:45:29.923Z,42.35
2018-06-28T20:47:58.095Z,42.39
2018-06-28T20:50:26.434Z,42.42
2018-06-28T20:52:54.654Z,42.08
2018-06-28T20:55:22.843Z,42.24
2018-06-28T20:57:51.014Z,42.01
2018-06-28T21:00:19.198Z,41.83
2018-06-28T21:02:47.399Z,42.16
2018-06-28T21:05:15.559Z,42.80
2018-06-28T21:07:43.926Z,42.55
2018-06-28T21:10:12.094Z,41.83
2018-06-28T21:12:40.262Z,42.13
2018-06-28T21:15:08.458Z,42.40
2018-06-28T21:17:36.618Z,41.98
2018-06-28T21:20:05.579Z,42.50
2018-06-28T21:22:33.766Z,41.57
2018-06-28T21:25:02.059Z,41.87
2018-06-28T21:27:30.250Z,42.43
2018-06-28T21:29:58.426Z,41.69
2018-06-28T21:32:26.610Z,42.10
2018-06-28T21:34:54.792Z,41.89
2018-06-28T21:37:22.982Z,42.55
2018-06-28T21:39:51.150Z,42.26
2018-06-28T21:42:19.326Z,42.00
2018-06-28T21:44:47.506Z,41.94
2018-06-28T21:47:15.667Z,41.72
2018-06-28T21:49:43.826Z,42.48
2018-06-28T21:52:12.074Z,41.77
2018-06-28T21:54:40.245Z,42.20
2018-06-28T21:57:08.455Z,42.29
2018-06-28T21:59:36.634Z,42.39
2018-06-28T22:02:04.942Z,42.51
2018-06-28T22:04:33.139Z,42.29
2018-06-28T22:07:01.354Z,42.49
2018-06-28T22:09:29.522Z,43.11
2018-06-28T22:11:57.695Z,42.58
2018-06-28T22:14:25.904Z,42.40
2018-06-28T22:16:54.031Z,42.22
2018-06-28T22:19:22.236Z,42.85
2018-06-28T22:21:50.362Z,43.01
2018-06-28T22:24:18.555Z,42.97
2018-06-28T22:26:46.725Z,42.93
2018-06-28T22:29:14.902Z,43.19
2018-06-28T22:31:43.080Z,43.32
2018-06-28T22:34:11.412Z,43.59
2018-06-28T22:36:39.518Z,43.43
2018-06-28T22:39:10.996Z,44.28
2018-06-28T22:41:39.166Z,43.79
2018-06-28T22:44:07.347Z,43.92
2018-06-28T22:46:35.893Z,44.38
2018-06-28T22:49:04.302Z,43.99
2018-06-28T22:51:32.463Z,44.51
2018-06-28T22:54:00.826Z,44.75
2018-06-28T22:56:29.022Z,44.82
2018-06-28T22:58:57.178Z,44.82
2018-06-28T23:01:25.346Z,45.31
2018-06-28T23:03:53.562Z,45.01
2018-06-28T23:06:21.764Z,45.09
2018-06-28T23:08:49.943Z,45.27
2018-06-28T23:11:18.146Z,45.33
2018-06-28T23:13:46.298Z,45.60
2018-06-28T23:16:14.463Z,45.61
2018-06-28T23:18:42.622Z,45.80
2018-06-28T23:21:10.795Z,46.19
2018-06-28T23:23:39.006Z,46.26
2018-06-28T23:26:07.179Z,46.33
2018-06-28T23:28:35.342Z,46.65
2018-06-28T23:31:03.516Z,46.28
2018-06-28T23:33:31.686Z,46.79
2018-06-28T23:35:59.886Z,47.03
2018-06-28T23:38:28.079Z,47.03
2018-06-28T23:40:56.266Z,47.33
2018-06-28T23:43:24.430Z,47.48
2018-06-28T23:45:52.593Z,47.31
2018-06-28T23:48:20.759Z,47.48
2018-06-28T23:50:48.989Z,47.70
2018-06-28T23:53:17.098Z,48.04
2018-06-28T23:55:45.276Z,47.71
2018-06-28T23:58:13.442Z,48.21
